Time;durP1;ratioP1;P1;durP2;ratioP2;P2;SDS_P1;SDS_P2;PMS_P1;PMS_P2;Temp;Humidity;BMP_temperature;BMP_pressure;BME280_temperature;BME280_humidity;BME280_pressure;Samples;Min_cycle;Max_cycle;Signal;HPM_P1;HPM_P2
2023/06/11 00:01:42;;;;;;;7.90;6.00;;;;;;;17.18;95.82;94048.78;5097578;28;20210;-74
2023/06/11 00:04:12;;;;;;;6.35;5.05;;;;;;;17.19;96.05;94051.13;5110877;28;20642;-75
2023/06/11 00:06:39;;;;;;;13.98;5.60;;;;;;;17.24;96.81;94047.22;5110791;28;20300;-75
2023/06/11 00:09:06;;;;;;;12.27;5.65;;;;;;;17.19;96.66;94044.88;5111278;28;20201;-75
2023/06/11 00:11:34;;;;;;;8.52;6.22;;;;;;;17.13;97.20;94049.91;5111029;28;20206;-75
2023/06/11 00:14:02;;;;;;;10.00;6.50;;;;;;;17.02;98.09;94047.13;5110696;28;20233;-75
2023/06/11 00:16:32;;;;;;;10.70;6.53;;;;;;;16.93;98.69;94049.44;5110963;28;20206;-75
2023/06/11 00:18:59;;;;;;;8.60;6.00;;;;;;;16.83;99.22;94050.13;5110560;28;20687;-75
2023/06/11 00:21:28;;;;;;;8.18;6.10;;;;;;;16.90;99.64;94050.19;5092816;28;20734;-75
2023/06/11 00:23:55;;;;;;;9.68;6.10;;;;;;;16.90;99.46;94050.19;5090045;28;20224;-75
2023/06/11 00:26:23;;;;;;;13.20;7.00;;;;;;;16.87;99.59;94050.16;5090227;28;20230;-75
2023/06/11 00:28:50;;;;;;;11.45;7.50;;;;;;;16.92;99.63;94047.84;5090147;28;20305;-75
2023/06/11 00:31:20;;;;;;;9.55;6.35;;;;;;;16.84;100.00;94050.91;5090228;28;20198;-75
2023/06/11 00:33:47;;;;;;;10.13;6.13;;;;;;;16.84;99.70;94065.38;5089222;28;20780;-75
2023/06/11 00:36:13;;;;;;;8.15;6.07;;;;;;;16.79;99.77;94054.81;5109245;28;20573;-75
2023/06/11 00:38:40;;;;;;;9.43;5.85;;;;;;;16.81;100.00;94057.91;5096239;28;20593;-75
2023/06/11 00:41:07;;;;;;;10.15;5.85;;;;;;;16.71;100.00;94058.63;5089218;28;20210;-75
2023/06/11 00:43:37;;;;;;;8.30;5.78;;;;;;;16.67;100.00;94057.84;5088937;28;20207;-75
2023/06/11 00:46:10;;;;;;;8.05;6.18;;;;;;;16.60;100.00;94052.28;5089769;28;20207;-75
2023/06/11 00:48:39;;;;;;;9.38;6.57;;;;;;;16.72;100.00;94054.75;5089884;28;20202;-75
2023/06/11 00:51:06;;;;;;;9.77;6.43;;;;;;;16.92;100.00;94058.78;5090229;28;20288;-75
2023/06/11 00:53:32;;;;;;;8.65;5.45;;;;;;;16.93;100.00;94052.16;5089443;28;20279;-75
2023/06/11 00:55:59;;;;;;;10.93;6.95;;;;;;;16.93;100.00;94049.44;5089739;28;20226;-75
2023/06/11 00:58:27;;;;;;;9.77;6.70;;;;;;;16.94;100.00;94056.47;5090245;28;20285;-75
2023/06/11 01:00:57;;;;;;;11.05;6.20;;;;;;;17.04;99.82;94060.44;5098530;28;20237;-75
2023/06/11 01:03:26;;;;;;;12.60;6.45;;;;;;;17.10;99.15;94052.63;5109901;28;20274;-75
2023/06/11 01:06:01;;;;;;;7.47;5.68;;;;;;;17.08;99.24;94054.97;5110407;28;20216;-75
2023/06/11 01:08:30;;;;;;;7.72;5.65;;;;;;;17.15;98.83;94055.00;5109990;28;20689;-75
2023/06/11 01:10:59;;;;;;;10.95;6.07;;;;;;;17.03;98.30;94056.91;5110228;28;20213;-75
2023/06/11 01:13:26;;;;;;;6.35;5.13;;;;;;;17.08;98.05;94044.03;5109733;28;20202;-75
2023/06/11 01:15:56;;;;;;;9.48;5.70;;;;;;;17.07;97.93;94053.41;5109698;28;20233;-75
2023/06/11 01:18:30;;;;;;;10.52;6.30;;;;;;;16.87;98.18;94056.41;5110015;28;20205;-75
2023/06/11 01:21:05;;;;;;;9.25;5.47;;;;;;;16.75;98.43;94059.47;5110332;28;20198;-75
2023/06/11 01:23:41;;;;;;;11.25;5.32;;;;;;;16.85;98.50;94053.25;5109280;28;20208;-75
2023/06/11 01:26:18;;;;;;;15.63;5.72;;;;;;;17.01;97.70;94050.25;5109499;28;20608;-75
2023/06/11 01:28:50;;;;;;;10.23;5.85;;;;;;;17.09;97.47;94053.78;5109437;28;20212;-75
2023/06/11 01:31:19;;;;;;;9.07;6.28;;;;;;;17.12;97.46;94055.75;5091009;28;20201;-75
2023/06/11 01:33:46;;;;;;;9.80;6.03;;;;;;;17.11;97.71;94045.97;5088935;28;20213;-75
2023/06/11 01:36:14;;;;;;;10.50;5.40;;;;;;;17.19;97.78;94044.88;5102996;28;20241;-75
2023/06/11 01:38:42;;;;;;;9.32;5.38;;;;;;;17.22;97.37;94044.09;5089234;28;20724;-75
2023/06/11 01:41:09;;;;;;;9.15;5.18;;;;;;;17.26;97.50;94047.63;5089234;28;20299;-75
2023/06/11 01:43:36;;;;;;;7.88;5.80;;;;;;;17.12;97.92;94045.59;5088558;28;20206;-75
2023/06/11 01:46:05;;;;;;;8.63;5.50;;;;;;;17.08;98.05;94044.03;5088505;28;20217;-75
2023/06/11 01:48:32;;;;;;;9.68;5.72;;;;;;;17.09;97.91;94045.56;5089361;28;20286;-75
2023/06/11 01:50:59;;;;;;;8.07;5.15;;;;;;;17.15;97.79;94049.53;5089524;28;20608;-75
2023/06/11 01:53:26;;;;;;;7.15;5.40;;;;;;;17.16;97.60;94051.09;5088722;28;20210;-75
2023/06/11 01:55:54;;;;;;;7.32;5.20;;;;;;;17.13;97.35;94055.38;5091637;28;20657;-75
2023/06/11 01:58:21;;;;;;;7.93;5.70;;;;;;;17.24;96.44;94058.16;5093832;28;20209;-75
2023/06/11 02:00:48;;;;;;;9.18;5.43;;;;;;;17.33;96.02;94061.38;5103931;28;20279;-75
2023/06/11 02:03:17;;;;;;;9.02;5.13;;;;;;;17.34;95.27;94058.25;5108346;28;20290;-75
2023/06/11 02:05:44;;;;;;;6.55;4.60;;;;;;;17.38;95.22;94055.50;5113341;28;20634;-75
2023/06/11 02:08:11;;;;;;;6.50;5.40;;;;;;;17.42;94.57;94059.06;5113622;28;20345;-75
2023/06/11 02:10:38;;;;;;;7.60;5.05;;;;;;;17.48;94.15;94067.69;5113669;28;20208;-75
2023/06/11 02:13:04;;;;;;;6.75;4.88;;;;;;;17.60;93.25;94057.19;5113191;28;20209;-75
2023/06/11 02:15:31;;;;;;;6.28;4.80;;;;;;;17.62;93.49;94062.28;5113310;28;20234;-75
2023/06/11 02:17:58;;;;;;;7.13;5.03;;;;;;;17.63;93.55;94059.16;5112874;28;20657;-74
2023/06/11 02:20:26;;;;;;;6.28;4.95;;;;;;;17.61;93.53;94066.97;5103147;28;20206;-74
2023/06/11 02:22:53;;;;;;;8.50;5.63;;;;;;;17.57;93.26;94060.69;5106278;28;20264;-74
2023/06/11 02:25:20;;;;;;;6.40;5.03;;;;;;;17.59;92.71;94055.59;5102851;28;20618;-74
2023/06/11 02:27:48;;;;;;;8.52;6.32;;;;;;;17.60;92.50;94062.66;5095875;28;20206;-74
2023/06/11 02:30:15;;;;;;;7.95;5.78;;;;;;;17.56;92.70;94056.38;5092267;28;20607;-74
2023/06/11 02:32:42;;;;;;;9.00;6.43;;;;;;;17.57;92.39;94063.41;5092651;28;20202;-74
2023/06/11 02:35:09;;;;;;;6.00;4.70;;;;;;;17.55;92.33;94057.53;5103337;28;20282;-74
2023/06/11 02:37:38;;;;;;;7.43;5.55;;;;;;;17.55;92.71;94060.28;5112888;28;20237;-74
2023/06/11 02:40:06;;;;;;;7.07;6.28;;;;;;;17.54;92.97;94060.66;5112549;28;20569;-74
2023/06/11 02:42:32;;;;;;;10.77;4.88;;;;;;;17.51;93.29;94059.47;5112952;28;20210;-74
2023/06/11 02:44:59;;;;;;;6.38;5.00;;;;;;;17.49;93.62;94063.78;5112944;28;20290;-75
2023/06/11 02:47:26;;;;;;;7.82;5.13;;;;;;;17.43;93.81;94046.94;5112783;28;20259;-74
2023/06/11 02:49:52;;;;;;;7.55;5.00;;;;;;;17.45;93.77;94069.25;5113019;28;20213;-75
2023/06/11 02:52:19;;;;;;;8.13;4.57;;;;;;;17.46;93.42;94059.06;5112262;28;20713;-75
2023/06/11 02:54:47;;;;;;;7.35;5.55;;;;;;;17.51;93.57;94051.25;5100092;28;20233;-75
2023/06/11 02:57:15;;;;;;;11.70;5.25;;;;;;;17.41;93.97;94057.47;5091541;28;20726;-74
2023/06/11 02:59:41;;;;;;;9.15;5.05;;;;;;;17.37;94.16;94059.41;5104717;28;20202;-75
2023/06/11 03:02:08;;;;;;;9.57;5.22;;;;;;;17.43;93.83;94060.63;5098000;28;20593;-74
2023/06/11 03:04:36;;;;;;;5.80;4.57;;;;;;;17.46;93.83;94059.06;5099114;28;20295;-75
2023/06/11 03:07:02;;;;;;;8.80;4.97;;;;;;;17.38;93.80;94066.47;5097171;28;20585;-75
2023/06/11 03:09:29;;;;;;;7.25;4.97;;;;;;;17.19;93.76;94066.75;5098660;28;20206;-75
2023/06/11 03:11:57;;;;;;;9.45;6.05;;;;;;;17.11;94.08;94065.94;5091756;28;20206;-75
2023/06/11 03:14:26;;;;;;;7.03;4.85;;;;;;;17.12;93.80;94063.97;5092060;28;20209;-75
2023/06/11 03:16:52;;;;;;;7.85;5.07;;;;;;;17.10;93.62;94066.31;5091783;28;20628;-75
2023/06/11 03:19:19;;;;;;;10.35;6.07;;;;;;;17.16;93.99;94062.84;5105354;28;20682;-74
2023/06/11 03:21:47;;;;;;;9.15;5.45;;;;;;;17.40;93.01;94072.34;5091341;28;20210;-75
2023/06/11 03:24:14;;;;;;;9.75;5.25;;;;;;;17.56;92.81;94064.59;5091382;28;20218;-75
2023/06/11 03:26:40;;;;;;;7.20;5.18;;;;;;;17.56;91.94;94069.28;5091267;28;20234;-75
2023/06/11 03:29:08;;;;;;;8.52;5.43;;;;;;;17.73;91.27;94069.38;5105343;28;20201;-75
2023/06/11 03:31:37;;;;;;;6.50;4.78;;;;;;;17.86;90.54;94072.56;5091688;28;20202;-75
2023/06/11 03:34:03;;;;;;;8.90;4.70;;;;;;;18.03;89.79;94077.31;5093099;28;20508;-74
2023/06/11 03:36:30;;;;;;;8.13;5.10;;;;;;;18.11;90.05;94081.63;5111405;28;20236;-76
2023/06/11 03:38:57;;;;;;;6.13;4.80;;;;;;;18.20;90.77;94092.19;5111350;28;20233;-75
2023/06/11 03:41:25;;;;;;;6.68;5.05;;;;;;;18.23;90.87;94093.38;5111675;28;20258;-75
2023/06/11 03:43:52;;;;;;;8.13;6.07;;;;;;;18.22;90.70;94100.81;5111881;28;20209;-75
2023/06/11 03:46:21;;;;;;;9.45;5.18;;;;;;;18.27;90.63;94097.72;5111448;28;20338;-75
2023/06/11 03:48:48;;;;;;;7.00;4.78;;;;;;;18.31;90.23;94098.47;5095083;28;20289;-75
2023/06/11 03:51:16;;;;;;;6.32;4.80;;;;;;;18.37;89.94;94091.44;5090919;28;20725;-75
2023/06/11 03:53:42;;;;;;;7.43;4.97;;;;;;;18.40;88.90;94093.41;5091158;28;20210;-75
2023/06/11 03:56:09;;;;;;;7.75;5.97;;;;;;;18.35;88.20;94093.78;5090477;28;20295;-75
2023/06/11 03:58:36;;;;;;;7.88;6.22;;;;;;;18.50;87.95;94094.59;5108062;28;20193;-74
2023/06/11 04:01:03;;;;;;;10.45;5.35;;;;;;;18.48;87.42;94091.44;5101075;28;20260;-75
2023/06/11 04:03:31;;;;;;;7.22;5.47;;;;;;;18.64;87.06;94086.41;5108106;28;20312;-74
2023/06/11 04:05:57;;;;;;;8.32;5.60;;;;;;;18.71;86.48;94093.88;5110995;28;20209;-75
2023/06/11 04:08:25;;;;;;;6.53;4.90;;;;;;;18.80;86.03;94091.50;5110872;28;20198;-74
2023/06/11 04:10:52;;;;;;;7.03;5.20;;;;;;;18.91;84.92;94095.00;5111300;28;20202;-75
2023/06/11 04:13:18;;;;;;;7.43;4.78;;;;;;;18.95;84.03;94092.28;5110949;28;20278;-74
2023/06/11 04:15:45;;;;;;;6.22;4.63;;;;;;;19.04;83.92;94084.41;5110424;28;20278;-75
2023/06/11 04:18:12;;;;;;;7.70;5.55;;;;;;;19.16;84.72;94092.22;5091921;28;20191;-75
2023/06/11 04:20:40;;;;;;;7.70;4.90;;;;;;;19.20;84.31;94092.25;5090504;28;20263;-75
2023/06/11 04:23:07;;;;;;;6.97;5.22;;;;;;;19.20;83.43;94082.03;5089560;28;20220;-74
2023/06/11 04:25:36;;;;;;;6.38;4.25;;;;;;;19.47;82.31;94087.84;5101341;28;20229;-74
2023/06/11 04:28:03;;;;;;;10.35;5.47;;;;;;;19.51;80.96;94085.91;5091095;28;20246;-75
2023/06/11 04:30:31;;;;;;;8.18;5.07;;;;;;;19.60;79.42;94083.53;5090018;28;20301;-74
2023/06/11 04:33:03;;;;;;;6.85;5.60;;;;;;;19.65;79.51;94091.38;5090345;28;20199;-75
2023/06/11 04:35:34;;;;;;;6.88;5.32;;;;;;;19.28;79.68;94085.53;5103960;28;20226;-74
2023/06/11 04:38:02;;;;;;;8.10;5.13;;;;;;;18.98;81.74;94084.03;5090200;28;20203;-74
2023/06/11 04:40:30;;;;;;;8.60;5.00;;;;;;;18.89;81.95;94083.66;5089580;28;20325;-75
2023/06/11 04:42:57;;;;;;;5.43;4.15;;;;;;;18.80;80.95;94080.53;5090287;28;20216;-74
2023/06/11 04:45:26;;;;;;;6.07;3.95;;;;;;;19.05;79.69;94075.78;5090194;28;20614;-74
2023/06/11 04:47:53;;;;;;;8.02;4.97;;;;;;;19.21;79.77;94077.31;5090315;28;20263;-75
2023/06/11 04:50:21;;;;;;;7.38;4.70;;;;;;;19.66;78.42;94084.69;5089791;28;20202;-75
2023/06/11 04:52:52;;;;;;;7.50;4.18;;;;;;;19.70;78.15;94077.19;5089996;28;20635;-74
2023/06/11 04:55:24;;;;;;;5.93;4.40;;;;;;;19.98;77.54;94073.53;5089349;28;20627;-75
2023/06/11 04:57:51;;;;;;;6.07;4.72;;;;;;;20.11;77.49;94071.88;5089845;28;20252;-74
2023/06/11 05:00:18;;;;;;;7.18;4.47;;;;;;;20.33;76.24;94063.53;5102924;28;20610;-74
2023/06/11 05:02:45;;;;;;;6.57;4.47;;;;;;;20.48;75.20;94073.28;5100923;28;20210;-74
2023/06/11 05:05:12;;;;;;;6.22;4.70;;;;;;;20.50;74.29;94074.41;5091638;28;20268;-74
2023/06/11 05:07:39;;;;;;;8.07;4.93;;;;;;;20.65;74.24;94077.84;5089484;28;20297;-74
2023/06/11 05:10:07;;;;;;;7.22;4.53;;;;;;;20.48;72.50;94079.56;5103095;28;20199;-76
2023/06/11 05:12:35;;;;;;;5.95;4.85;;;;;;;20.17;74.36;94077.75;5097268;28;20612;-76
2023/06/11 05:15:02;;;;;;;6.93;4.85;;;;;;;20.60;73.72;94083.00;5099625;28;20198;-75
2023/06/11 05:17:29;;;;;;;7.95;4.50;;;;;;;20.89;73.42;94078.84;5101083;28;20222;-75
2023/06/11 05:19:55;;;;;;;6.65;4.38;;;;;;;20.50;72.69;94079.16;5095836;28;20255;-75
2023/06/11 05:22:23;;;;;;;6.20;4.15;;;;;;;19.97;74.44;94079.44;5098701;28;20190;-74
2023/06/11 05:24:50;;;;;;;6.55;4.32;;;;;;;20.01;75.49;94088.44;5101860;28;20236;-74
2023/06/11 05:27:16;;;;;;;10.77;4.95;;;;;;;20.12;74.84;94086.41;5100147;28;20220;-74
2023/06/11 05:29:45;;;;;;;7.10;4.68;;;;;;;20.31;72.70;94088.69;5099995;28;20198;-74
2023/06/11 05:32:14;;;;;;;8.38;4.95;;;;;;;20.20;73.63;94091.50;5098466;28;20572;-74
2023/06/11 05:34:41;;;;;;;8.93;5.13;;;;;;;20.28;72.76;94100.47;5100923;28;20297;-77
2023/06/11 05:37:08;;;;;;;6.65;5.18;;;;;;;20.49;73.81;94094.88;5099966;28;20619;-76
2023/06/11 05:39:35;;;;;;;9.40;5.90;;;;;;;20.57;71.94;94090.88;5098783;28;20241;-74
2023/06/11 05:42:03;;;;;;;8.48;5.10;;;;;;;20.79;71.03;94090.72;5096465;28;20202;-74
2023/06/11 05:44:30;;;;;;;6.72;5.35;;;;;;;20.89;71.01;94095.38;5089495;28;20225;-73
2023/06/11 05:46:58;;;;;;;6.50;4.45;;;;;;;21.50;69.50;94101.09;5089363;28;20206;-73
2023/06/11 05:49:25;;;;;;;6.93;4.63;;;;;;;21.97;67.99;94097.41;5096668;28;20238;-74
2023/06/11 05:51:51;;;;;;;8.10;4.50;;;;;;;22.05;67.97;94091.81;5096407;28;20264;-73
2023/06/11 05:54:18;;;;;;;9.45;4.53;;;;;;;22.32;66.94;94090.66;5102633;28;20252;-74
2023/06/11 05:56:45;;;;;;;8.73;4.50;;;;;;;22.49;66.11;94088.84;5103426;28;20237;-74
2023/06/11 05:59:12;;;;;;;7.75;4.82;;;;;;;22.66;66.89;94096.09;5098041;28;20263;-74
2023/06/11 06:01:38;;;;;;;7.70;5.38;;;;;;;22.60;66.59;94095.00;5095362;28;20205;-74
2023/06/11 06:04:07;;;;;;;6.75;5.40;;;;;;;22.87;65.05;94094.22;5100820;28;20930;-74
2023/06/11 06:06:33;;;;;;;9.63;5.00;;;;;;;22.92;64.51;94093.75;5089337;28;20654;-74
2023/06/11 06:09:00;;;;;;;9.25;5.38;;;;;;;22.84;64.57;94095.06;5098200;28;20202;-74
2023/06/11 06:11:27;;;;;;;8.30;5.68;;;;;;;22.65;65.45;94096.50;5096090;28;20259;-74
2023/06/11 06:13:54;;;;;;;5.95;4.85;;;;;;;22.91;64.20;94092.19;5101503;28;20285;-74
2023/06/11 06:16:20;;;;;;;9.32;5.15;;;;;;;22.77;64.35;94089.66;5103284;28;20226;-74
2023/06/11 06:18:47;;;;;;;12.25;5.10;;;;;;;22.82;65.55;94094.72;5098318;28;20285;-74
2023/06/11 06:21:15;;;;;;;7.55;5.40;;;;;;;22.62;64.90;94100.88;5096346;28;20198;-74
2023/06/11 06:23:42;;;;;;;6.30;5.18;;;;;;;23.32;62.40;94086.34;5100476;28;20255;-74
2023/06/11 06:26:09;;;;;;;7.55;5.18;;;;;;;23.67;61.19;94082.94;5103283;28;20230;-73
2023/06/11 06:28:36;;;;;;;6.03;4.50;;;;;;;24.06;60.52;94092.44;5089697;28;20214;-73
2023/06/11 06:31:07;;;;;;;8.40;5.28;;;;;;;24.32;58.96;94097.09;5089857;28;20289;-74
2023/06/11 06:33:37;;;;;;;9.73;5.25;;;;;;;25.04;56.67;94082.38;5101139;28;20270;-74
2023/06/11 06:36:05;;;;;;;8.02;5.00;;;;;;;24.52;57.50;94088.72;5091179;28;20723;-74
2023/06/11 06:38:35;;;;;;;8.15;4.75;;;;;;;26.86;53.07;94082.44;5089372;28;20207;-74
2023/06/11 06:41:02;;;;;;;9.50;4.70;;;;;;;27.99;50.38;94079.88;5103534;28;20275;-75
2023/06/11 06:43:28;;;;;;;8.43;4.60;;;;;;;27.49;49.38;94080.81;5105026;28;20664;-74
2023/06/11 06:45:55;;;;;;;23.48;5.55;;;;;;;26.86;50.80;94079.66;5094214;28;20676;-74
2023/06/11 06:48:23;;;;;;;6.35;4.80;;;;;;;26.38;51.68;94088.31;5105833;28;20201;-74
2023/06/11 06:50:50;;;;;;;10.32;5.07;;;;;;;26.59;52.87;94090.44;5099598;28;20201;-74
2023/06/11 06:53:16;;;;;;;7.90;5.00;;;;;;;26.78;51.22;94083.91;5100367;28;20423;-74
2023/06/11 06:55:45;;;;;;;9.25;4.80;;;;;;;26.40;52.49;94081.09;5107044;28;20600;-74
2023/06/11 06:58:12;;;;;;;6.80;4.97;;;;;;;26.10;52.67;94079.56;5106349;28;20285;-74
2023/06/11 07:00:38;;;;;;;11.57;4.95;;;;;;;26.66;51.98;94081.09;5099862;28;20201;-72
2023/06/11 07:03:05;;;;;;;5.57;4.70;;;;;;;27.12;50.32;94079.66;5099335;28;20354;-73
2023/06/11 07:05:32;;;;;;;6.20;4.50;;;;;;;26.39;51.72;94081.53;5098899;28;20205;-73
2023/06/11 07:07:59;;;;;;;7.18;4.90;;;;;;;27.01;51.14;94084.81;5112369;28;20598;-73
2023/06/11 07:10:25;;;;;;;8.10;4.93;;;;;;;27.29;49.91;94078.31;5098885;28;20622;-75
2023/06/11 07:12:53;;;;;;;7.60;5.32;;;;;;;27.79;48.77;94082.19;5099377;28;20198;-73
2023/06/11 07:15:20;;;;;;;7.45;4.80;;;;;;;28.22;48.29;94081.44;5105151;28;20645;-74
2023/06/11 07:17:47;;;;;;;6.82;5.40;;;;;;;27.44;48.91;94076.59;5106518;28;20316;-74
2023/06/11 07:20:14;;;;;;;8.02;5.60;;;;;;;26.50;51.59;94082.00;5100316;28;20201;-73
2023/06/11 07:22:41;;;;;;;8.38;6.03;;;;;;;26.24;51.95;94085.94;5099081;28;20198;-75
2023/06/11 07:25:08;;;;;;;7.07;5.75;;;;;;;25.71;52.75;94085.44;5104215;28;20222;-75
2023/06/11 07:27:35;;;;;;;10.30;5.65;;;;;;;25.78;52.93;94077.69;5105519;28;20193;-73
2023/06/11 07:30:03;;;;;;;8.55;5.78;;;;;;;26.76;50.74;94082.78;5100202;28;20743;-75
2023/06/11 07:32:30;;;;;;;8.57;5.22;;;;;;;28.21;47.26;94075.09;5096067;28;20629;-77
2023/06/11 07:34:57;;;;;;;7.65;6.05;;;;;;;28.87;45.65;94075.00;5100155;28;20270;-74
2023/06/11 07:37:24;;;;;;;7.35;5.38;;;;;;;28.14;47.72;94075.34;5094859;28;20634;-74
2023/06/11 07:39:50;;;;;;;8.82;5.30;;;;;;;28.90;45.57;94074.84;5099994;28;20229;-73
2023/06/11 07:42:17;;;;;;;8.32;5.30;;;;;;;31.32;41.83;94064.13;5097966;28;20219;-73
2023/06/11 07:44:44;;;;;;;6.22;4.85;;;;;;;32.24;39.15;94053.84;5101421;28;20247;-74
2023/06/11 07:47:12;;;;;;;6.57;5.13;;;;;;;32.13;38.43;94059.97;5093428;28;20202;-75
2023/06/11 07:49:39;;;;;;;5.90;4.85;;;;;;;31.43;39.95;94058.81;5101786;28;20251;-74
2023/06/11 07:52:06;;;;;;;5.80;5.20;;;;;;;29.46;44.02;94059.06;5104491;28;20205;-75
2023/06/11 07:54:33;;;;;;;8.25;6.10;;;;;;;29.27;44.14;94058.22;5099758;28;20199;-75
2023/06/11 07:57:00;;;;;;;7.25;5.47;;;;;;;29.78;43.40;94041.72;5099448;28;20288;-75
2023/06/11 07:59:29;;;;;;;5.80;4.63;;;;;;;30.18;42.25;94049.16;5103382;28;20197;-78
2023/06/11 08:01:56;;;;;;;8.20;5.07;;;;;;;30.83;41.88;94056.91;5101253;28;20213;-75
2023/06/11 08:04:25;;;;;;;6.03;4.68;;;;;;;28.65;42.67;94063.88;5099042;28;20210;-74
2023/06/11 08:06:52;;;;;;;8.52;5.10;;;;;;;28.47;44.32;94063.78;5101167;28;20298;-77
2023/06/11 08:09:19;;;;;;;7.00;4.80;;;;;;;28.60;44.33;94061.69;5102758;28;20201;-78
2023/06/11 08:11:46;;;;;;;7.00;5.05;;;;;;;29.38;43.99;94055.00;5101959;28;20227;-75
2023/06/11 08:14:13;;;;;;;10.25;5.95;;;;;;;28.82;44.81;94059.66;5098443;28;20676;-73
2023/06/11 08:16:40;;;;;;;7.35;5.10;;;;;;;28.23;44.06;94067.06;5104140;28;20256;-72
2023/06/11 08:19:07;;;;;;;6.30;5.03;;;;;;;27.80;45.44;94056.69;5100643;28;20534;-74
2023/06/11 08:21:35;;;;;;;5.85;4.93;;;;;;;28.84;43.06;94048.00;5101539;28;20255;-74
2023/06/11 08:24:02;;;;;;;8.68;5.30;;;;;;;28.19;44.10;94055.28;5101287;28;20199;-74
2023/06/11 08:26:28;;;;;;;14.27;5.97;;;;;;;28.33;45.31;94058.75;5098051;28;20657;-78
2023/06/11 08:28:55;;;;;;;6.47;4.88;;;;;;;28.88;43.19;94055.00;5089360;28;20198;-76
2023/06/11 08:31:22;;;;;;;9.02;5.03;;;;;;;28.20;44.06;94056.81;5092340;28;20222;-75
2023/06/11 08:33:49;;;;;;;6.75;5.18;;;;;;;27.87;45.16;94052.88;5097447;28;20293;-74
2023/06/11 08:36:16;;;;;;;7.30;5.22;;;;;;;28.14;43.17;94046.72;5094511;28;20316;-76
2023/06/11 08:38:45;;;;;;;8.10;5.30;;;;;;;28.53;43.42;94050.81;5089497;28;20230;-78
2023/06/11 08:41:11;;;;;;;7.55;5.07;;;;;;;28.47;43.15;94052.63;5101684;28;20190;-76
2023/06/11 08:43:39;;;;;;;8.43;5.30;;;;;;;28.63;43.15;94044.03;5099460;27;20590;-75
2023/06/11 08:46:06;;;;;;;6.18;4.70;;;;;;;28.50;42.82;94051.72;5092298;28;20199;-75
2023/06/11 08:48:37;;;;;;;9.23;5.07;;;;;;;28.30;44.84;94050.06;5091115;28;20206;-75
2023/06/11 08:51:07;;;;;;;7.50;5.28;;;;;;;28.05;43.62;94061.34;5099028;28;20206;-76
2023/06/11 08:53:35;;;;;;;7.53;5.05;;;;;;;27.91;43.33;94053.50;5092725;28;20808;-74
2023/06/11 08:56:03;;;;;;;8.15;5.03;;;;;;;28.39;44.50;94062.50;5089493;28;20194;-73
2023/06/11 08:58:31;;;;;;;8.63;5.15;;;;;;;27.68;44.20;94060.28;5099677;28;20244;-77
2023/06/11 09:00:58;;;;;;;7.60;5.53;;;;;;;27.16;45.32;94052.53;5096399;28;20305;-74
2023/06/11 09:03:25;;;;;;;8.00;5.28;;;;;;;27.58;44.39;94045.53;5089954;28;20271;-73
2023/06/11 09:05:52;;;;;;;7.85;5.10;;;;;;;27.71;43.63;94039.13;5097994;28;20237;-74
2023/06/11 09:08:19;;;;;;;8.20;4.95;;;;;;;27.40;44.13;94050.91;5090136;28;20538;-78
2023/06/11 09:10:50;;;;;;;6.80;4.65;;;;;;;27.80;42.94;94044.75;5099816;28;20251;-75
2023/06/11 09:13:19;;;;;;;5.70;4.72;;;;;;;27.70;43.04;94043.16;5104535;28;20672;-76
2023/06/11 09:15:49;;;;;;;7.22;4.60;;;;;;;27.71;44.89;94039.13;5089257;28;20198;-76
2023/06/11 09:18:22;;;;;;;7.18;5.65;;;;;;;26.90;46.48;94046.97;5089315;28;20260;-76
2023/06/11 09:20:50;;;;;;;7.15;5.20;;;;;;;26.48;47.18;94048.34;5094041;28;20202;-75
2023/06/11 09:23:25;;;;;;;8.88;5.13;;;;;;;26.99;46.60;94031.66;5105694;28;20289;-77
2023/06/11 09:25:52;;;;;;;6.68;4.95;;;;;;;27.48;45.51;94029.94;5100447;28;20240;-76
2023/06/11 09:28:20;;;;;;;9.52;5.10;;;;;;;27.07;45.15;94030.94;5105120;27;20607;-76
2023/06/11 09:30:56;;;;;;;6.80;5.03;;;;;;;26.97;46.80;94032.09;5094845;28;20667;-76
2023/06/11 09:33:23;;;;;;;5.50;4.90;;;;;;;27.08;45.54;94031.72;5098776;28;20729;-78
2023/06/11 09:35:50;;;;;;;7.35;4.88;;;;;;;26.97;46.76;94028.53;5095372;28;20210;-77
2023/06/11 09:38:18;;;;;;;8.40;5.63;;;;;;;27.12;45.58;94029.63;5099352;28;20237;-74
2023/06/11 09:40:49;;;;;;;8.45;4.97;;;;;;;26.99;45.71;94026.09;5089143;28;20251;-75
2023/06/11 09:43:18;;;;;;;9.48;4.82;;;;;;;27.63;44.12;94030.25;5093570;28;20206;-74
2023/06/11 09:45:48;;;;;;;5.55;4.57;;;;;;;27.76;42.72;94016.25;5093057;27;20206;-73
2023/06/11 09:48:15;;;;;;;7.63;4.22;;;;;;;28.17;42.36;94021.50;5088629;28;20221;-73
2023/06/11 09:50:43;;;;;;;5.80;4.63;;;;;;;28.29;42.95;94019.91;5088012;28;20718;-75
2023/06/11 09:53:11;;;;;;;5.78;4.85;;;;;;;27.01;43.11;94023.63;5087987;28;20673;-76
2023/06/11 09:55:39;;;;;;;9.18;5.18;;;;;;;26.03;41.97;94023.47;5092902;28;20426;-76
2023/06/11 09:58:06;;;;;;;7.88;4.70;;;;;;;26.10;44.20;94020.50;5096891;28;20325;-74
2023/06/11 10:00:34;;;;;;;7.07;5.25;;;;;;;26.04;44.44;94025.81;5089432;28;20248;-74
2023/06/11 10:03:02;;;;;;;7.38;5.80;;;;;;;26.31;43.28;94022.66;5088693;28;20268;-75
2023/06/11 10:05:29;;;;;;;8.63;5.03;;;;;;;26.90;44.82;94013.63;5087504;28;20724;-75
2023/06/11 10:08:02;;;;;;;7.43;4.93;;;;;;;27.64;43.69;94000.41;5088965;28;20210;-75
2023/06/11 10:10:30;;;;;;;8.68;5.47;;;;;;;28.30;40.97;94005.50;5096072;28;20201;-74
2023/06/11 10:12:57;;;;;;;7.60;5.70;;;;;;;28.36;42.56;94011.25;5094573;28;20206;-75
2023/06/11 10:15:25;;;;;;;6.30;5.40;;;;;;;28.18;40.68;94006.34;5087301;28;20210;-74
2023/06/11 10:17:53;;;;;;;8.00;5.97;;;;;;;28.24;39.71;94006.56;5092405;28;20234;-74
2023/06/11 10:20:27;;;;;;;9.32;5.97;;;;;;;28.62;43.07;93997.88;5106642;27;20189;-75
2023/06/11 10:23:04;;;;;;;6.75;5.15;;;;;;;28.54;41.69;93991.06;5115840;27;20189;-75
2023/06/11 10:25:33;;;;;;;7.63;5.30;;;;;;;28.47;40.88;93994.88;5092473;28;20295;-75
2023/06/11 10:28:00;;;;;;;9.05;5.50;;;;;;;27.75;40.59;93992.44;5092277;28;20242;-75
2023/06/11 10:30:27;;;;;;;6.82;5.55;;;;;;;28.27;40.60;93988.94;5092338;28;20206;-76
2023/06/11 10:32:56;;;;;;;8.30;5.60;;;;;;;29.24;39.84;93965.06;5092738;28;20206;-75
2023/06/11 10:35:28;;;;;;;6.72;5.30;;;;;;;28.52;39.00;93974.78;5105197;28;20202;-75
2023/06/11 10:38:03;;;;;;;6.38;4.97;;;;;;;28.61;39.86;93971.25;5105672;28;20214;-76
2023/06/11 10:40:38;;;;;;;9.18;5.45;;;;;;;28.33;40.10;93977.94;5093221;28;20229;-78
2023/06/11 10:43:17;;;;;;;5.90;5.30;;;;;;;28.28;41.03;93982.13;5102548;28;20198;-75
2023/06/11 10:45:44;;;;;;;8.68;5.13;;;;;;;28.27;41.41;93978.56;5091338;28;20213;-74
2023/06/11 10:48:11;;;;;;;7.20;5.18;;;;;;;28.57;39.40;93970.59;5091017;28;20260;-74
2023/06/11 10:50:39;;;;;;;6.45;5.28;;;;;;;29.13;38.23;93969.53;5091806;28;20593;-74
2023/06/11 10:53:12;;;;;;;9.70;5.10;;;;;;;28.09;39.22;93972.09;5092253;28;20207;-75
2023/06/11 10:55:43;;;;;;;6.53;5.28;;;;;;;28.30;40.29;93972.06;5092414;28;20206;-76
2023/06/11 10:58:19;;;;;;;8.50;5.28;;;;;;;26.83;43.67;93947.13;5092002;28;20623;-75
2023/06/11 11:00:46;;;;;;;6.45;5.18;;;;;;;26.82;44.67;93975.38;5092394;28;20247;-75
2023/06/11 11:03:13;;;;;;;7.35;5.53;;;;;;;26.23;44.23;93967.75;5092199;28;20230;-75
2023/06/11 11:05:43;;;;;;;8.27;6.03;;;;;;;26.57;43.76;93970.63;5091844;28;20206;-75
2023/06/11 11:08:10;;;;;;;7.78;5.30;;;;;;;27.28;41.82;93959.16;5092309;28;20312;-76
2023/06/11 11:10:38;;;;;;;7.32;4.82;;;;;;;28.03;40.07;93957.97;5091971;28;20288;-75
2023/06/11 11:13:05;;;;;;;8.05;5.22;;;;;;;27.91;41.39;93961.63;5092161;28;20210;-75
2023/06/11 11:15:32;;;;;;;8.38;4.80;;;;;;;28.36;40.61;93949.19;5091415;28;20209;-75
2023/06/11 11:17:58;;;;;;;9.02;5.30;;;;;;;28.64;41.23;93946.03;5092151;28;20229;-75
2023/06/11 11:20:25;;;;;;;8.68;5.47;;;;;;;27.81;40.82;93971.16;5108831;27;20242;-76
2023/06/11 11:22:56;;;;;;;6.47;4.70;;;;;;;27.91;41.45;93956.06;5100371;27;20206;-75
2023/06/11 11:25:25;;;;;;;6.78;4.47;;;;;;;27.54;42.95;93975.28;5091452;28;20249;-75
2023/06/11 11:27:52;;;;;;;7.10;4.38;;;;;;;26.02;46.94;93983.03;5090773;28;20695;-75
2023/06/11 11:30:19;;;;;;;9.88;4.40;;;;;;;25.06;49.27;93983.72;5091507;28;20206;-74
2023/06/11 11:32:46;;;;;;;6.03;4.20;;;;;;;24.98;50.07;93989.91;5091433;28;20201;-75
2023/06/11 11:35:15;;;;;;;10.10;4.65;;;;;;;25.04;49.91;93982.59;5102433;28;20258;-74